sensor_id;sensor_type;location;lat;lon;timestamp;P1;durP1;ratioP1;P2;durP2;ratioP2
2710;SDS011;20721;47.402;8.550;2022-08-24T00:00:36;5.48;;;5.48;;
2710;SDS011;20721;47.402;8.550;2022-08-24T00:02:37;5.12;;;5.12;;
2710;SDS011;20721;47.402;8.550;2022-08-24T00:03:44;5.81;;;5.81;;
2710;SDS011;20721;47.402;8.550;2022-08-24T00:05:36;5.07;;;5.07;;
2710;SDS011;20721;47.402;8.550;2022-08-24T00:06:37;4.78;;;4.78;;
2710;SDS011;20721;47.402;8.550;2022-08-24T00:08:37;5.55;;;5.55;;
2710;SDS011;20721;47.402;8.550;2022-08-24T00:09:37;5.34;;;5.34;;
2710;SDS011;20721;47.402;8.550;2022-08-24T00:10:36;5.71;;;5.71;;
2710;SDS011;20721;47.402;8.550;2022-08-24T00:11:37;5.17;;;5.17;;
2710;SDS011;20721;47.402;8.550;2022-08-24T00:12:37;5.44;;;5.44;;
2710;SDS011;20721;47.402;8.550;2022-08-24T00:15:36;5.28;;;5.28;;
2710;SDS011;20721;47.402;8.550;2022-08-24T00:16:36;5.01;;;5.01;;
2710;SDS011;20721;47.402;8.550;2022-08-24T00:17:37;5.33;;;5.33;;
2710;SDS011;20721;47.402;8.550;2022-08-24T00:19:37;5.27;;;5.27;;
2710;SDS011;20721;47.402;8.550;2022-08-24T00:20:36;5.29;;;5.29;;
2710;SDS011;20721;47.402;8.550;2022-08-24T00:21:36;5.39;;;5.39;;
2710;SDS011;20721;47.402;8.550;2022-08-24T00:22:38;6.08;;;6.08;;
2710;SDS011;20721;47.402;8.550;2022-08-24T00:23:37;6.32;;;6.32;;
2710;SDS011;20721;47.402;8.550;2022-08-24T00:24:36;5.84;;;5.84;;
2710;SDS011;20721;47.402;8.550;2022-08-24T00:25:36;6.24;;;6.24;;
2710;SDS011;20721;47.402;8.550;2022-08-24T00:26:39;5.98;;;5.98;;
2710;SDS011;20721;47.402;8.550;2022-08-24T00:27:37;6.79;;;6.79;;
2710;SDS011;20721;47.402;8.550;2022-08-24T00:28:38;6.06;;;6.06;;
2710;SDS011;20721;47.402;8.550;2022-08-24T00:29:37;5.85;;;5.85;;
2710;SDS011;20721;47.402;8.550;2022-08-24T00:30:37;5.89;;;5.89;;
2710;SDS011;20721;47.402;8.550;2022-08-24T00:31:37;6.67;;;6.67;;
2710;SDS011;20721;47.402;8.550;2022-08-24T00:34:37;6.35;;;6.35;;
2710;SDS011;20721;47.402;8.550;2022-08-24T00:35:37;6.06;;;6.06;;
2710;SDS011;20721;47.402;8.550;2022-08-24T00:36:36;5.99;;;5.99;;
2710;SDS011;20721;47.402;8.550;2022-08-24T00:39:36;6.41;;;6.41;;
2710;SDS011;20721;47.402;8.550;2022-08-24T00:40:40;6.30;;;6.30;;
2710;SDS011;20721;47.402;8.550;2022-08-24T00:41:40;6.44;;;6.44;;
2710;SDS011;20721;47.402;8.550;2022-08-24T00:42:37;5.89;;;5.89;;
2710;SDS011;20721;47.402;8.550;2022-08-24T00:43:37;6.07;;;6.07;;
2710;SDS011;20721;47.402;8.550;2022-08-24T00:44:36;6.55;;;6.55;;
2710;SDS011;20721;47.402;8.550;2022-08-24T00:45:39;5.93;;;5.93;;
2710;SDS011;20721;47.402;8.550;2022-08-24T00:47:43;6.31;;;6.31;;
2710;SDS011;20721;47.402;8.550;2022-08-24T00:48:40;5.60;;;5.60;;
2710;SDS011;20721;47.402;8.550;2022-08-24T00:50:49;6.44;;;6.44;;
2710;SDS011;20721;47.402;8.550;2022-08-24T00:52:42;6.69;;;6.69;;
2710;SDS011;20721;47.402;8.550;2022-08-24T00:53:42;6.42;;;6.42;;
2710;SDS011;20721;47.402;8.550;2022-08-24T00:54:43;5.88;;;5.88;;
2710;SDS011;20721;47.402;8.550;2022-08-24T00:55:41;6.16;;;6.16;;
2710;SDS011;20721;47.402;8.550;2022-08-24T00:56:40;6.22;;;6.22;;
2710;SDS011;20721;47.402;8.550;2022-08-24T00:57:40;5.98;;;5.98;;
2710;SDS011;20721;47.402;8.550;2022-08-24T00:58:43;6.52;;;6.52;;
2710;SDS011;20721;47.402;8.550;2022-08-24T00:59:49;6.92;;;6.92;;
2710;SDS011;20721;47.402;8.550;2022-08-24T01:00:40;6.41;;;6.41;;
2710;SDS011;20721;47.402;8.550;2022-08-24T01:01:37;6.48;;;6.48;;
2710;SDS011;20721;47.402;8.550;2022-08-24T01:02:41;7.06;;;7.06;;
2710;SDS011;20721;47.402;8.550;2022-08-24T01:04:42;6.35;;;6.35;;
2710;SDS011;20721;47.402;8.550;2022-08-24T01:05:37;5.87;;;5.87;;
2710;SDS011;20721;47.402;8.550;2022-08-24T01:06:37;6.36;;;6.36;;
2710;SDS011;20721;47.402;8.550;2022-08-24T01:07:38;6.28;;;6.28;;
2710;SDS011;20721;47.402;8.550;2022-08-24T01:12:39;6.27;;;6.27;;
2710;SDS011;20721;47.402;8.550;2022-08-24T01:13:37;6.66;;;6.66;;
2710;SDS011;20721;47.402;8.550;2022-08-24T01:16:47;6.32;;;6.32;;
2710;SDS011;20721;47.402;8.550;2022-08-24T01:17:47;6.47;;;6.47;;
2710;SDS011;20721;47.402;8.550;2022-08-24T01:21:43;6.43;;;6.43;;
2710;SDS011;20721;47.402;8.550;2022-08-24T01:24:36;6.29;;;6.29;;
2710;SDS011;20721;47.402;8.550;2022-08-24T01:25:37;6.06;;;6.06;;
2710;SDS011;20721;47.402;8.550;2022-08-24T01:26:45;5.44;;;5.44;;
2710;SDS011;20721;47.402;8.550;2022-08-24T01:27:39;6.24;;;6.24;;
2710;SDS011;20721;47.402;8.550;2022-08-24T01:28:39;5.80;;;5.80;;
2710;SDS011;20721;47.402;8.550;2022-08-24T01:29:38;6.51;;;6.51;;
2710;SDS011;20721;47.402;8.550;2022-08-24T01:30:46;6.91;;;6.91;;
2710;SDS011;20721;47.402;8.550;2022-08-24T01:31:37;7.00;;;7.00;;
2710;SDS011;20721;47.402;8.550;2022-08-24T01:32:37;6.74;;;6.74;;
2710;SDS011;20721;47.402;8.550;2022-08-24T01:33:38;7.00;;;7.00;;
2710;SDS011;20721;47.402;8.550;2022-08-24T01:34:36;6.95;;;6.95;;
2710;SDS011;20721;47.402;8.550;2022-08-24T01:35:37;6.50;;;6.50;;
2710;SDS011;20721;47.402;8.550;2022-08-24T01:36:47;6.08;;;6.08;;
2710;SDS011;20721;47.402;8.550;2022-08-24T01:37:38;7.19;;;7.19;;
2710;SDS011;20721;47.402;8.550;2022-08-24T01:38:37;6.41;;;6.41;;
2710;SDS011;20721;47.402;8.550;2022-08-24T01:39:41;6.25;;;6.25;;
2710;SDS011;20721;47.402;8.550;2022-08-24T01:40:43;7.10;;;7.10;;
2710;SDS011;20721;47.402;8.550;2022-08-24T01:41:39;6.50;;;6.50;;
2710;SDS011;20721;47.402;8.550;2022-08-24T01:42:38;6.47;;;6.47;;
2710;SDS011;20721;47.402;8.550;2022-08-24T01:47:38;6.49;;;6.49;;
2710;SDS011;20721;47.402;8.550;2022-08-24T01:51:40;7.29;;;7.29;;
2710;SDS011;20721;47.402;8.550;2022-08-24T01:52:48;6.81;;;6.81;;
2710;SDS011;20721;47.402;8.550;2022-08-24T01:53:37;7.04;;;7.04;;
2710;SDS011;20721;47.402;8.550;2022-08-24T01:54:37;7.57;;;7.57;;
2710;SDS011;20721;47.402;8.550;2022-08-24T01:55:39;6.42;;;6.42;;
2710;SDS011;20721;47.402;8.550;2022-08-24T01:56:41;6.72;;;6.72;;
2710;SDS011;20721;47.402;8.550;2022-08-24T01:58:42;6.61;;;6.61;;
2710;SDS011;20721;47.402;8.550;2022-08-24T01:59:37;7.35;;;7.35;;
2710;SDS011;20721;47.402;8.550;2022-08-24T02:00:37;6.72;;;6.72;;
2710;SDS011;20721;47.402;8.550;2022-08-24T02:03:40;7.53;;;7.53;;
2710;SDS011;20721;47.402;8.550;2022-08-24T02:04:37;6.51;;;6.51;;
2710;SDS011;20721;47.402;8.550;2022-08-24T02:05:36;7.12;;;7.12;;
2710;SDS011;20721;47.402;8.550;2022-08-24T02:06:37;6.30;;;6.30;;
2710;SDS011;20721;47.402;8.550;2022-08-24T02:07:38;6.87;;;6.87;;
2710;SDS011;20721;47.402;8.550;2022-08-24T02:08:37;6.75;;;6.75;;
2710;SDS011;20721;47.402;8.550;2022-08-24T02:10:37;6.75;;;6.75;;
2710;SDS011;20721;47.402;8.550;2022-08-24T02:11:37;6.75;;;6.75;;
2710;SDS011;20721;47.402;8.550;2022-08-24T02:12:38;6.65;;;6.65;;
2710;SDS011;20721;47.402;8.550;2022-08-24T02:13:38;7.19;;;7.19;;
2710;SDS011;20721;47.402;8.550;2022-08-24T02:14:42;6.88;;;6.88;;
2710;SDS011;20721;47.402;8.550;2022-08-24T02:15:39;6.93;;;6.93;;
2710;SDS011;20721;47.402;8.550;2022-08-24T02:16:37;7.22;;;7.22;;
2710;SDS011;20721;47.402;8.550;2022-08-24T02:17:37;7.29;;;7.29;;
2710;SDS011;20721;47.402;8.550;2022-08-24T02:18:37;6.89;;;6.89;;
2710;SDS011;20721;47.402;8.550;2022-08-24T02:20:37;6.93;;;6.93;;
2710;SDS011;20721;47.402;8.550;2022-08-24T02:21:37;7.17;;;7.17;;
2710;SDS011;20721;47.402;8.550;2022-08-24T02:22:37;7.02;;;7.02;;
2710;SDS011;20721;47.402;8.550;2022-08-24T02:23:38;6.86;;;6.86;;
2710;SDS011;20721;47.402;8.550;2022-08-24T02:24:37;6.36;;;6.36;;
2710;SDS011;20721;47.402;8.550;2022-08-24T02:27:37;6.46;;;6.46;;
2710;SDS011;20721;47.402;8.550;2022-08-24T02:28:38;7.28;;;7.28;;
2710;SDS011;20721;47.402;8.550;2022-08-24T02:30:37;6.99;;;6.99;;
2710;SDS011;20721;47.402;8.550;2022-08-24T02:31:37;6.84;;;6.84;;
2710;SDS011;20721;47.402;8.550;2022-08-24T02:34:37;6.73;;;6.73;;
2710;SDS011;20721;47.402;8.550;2022-08-24T02:35:38;7.46;;;7.46;;
2710;SDS011;20721;47.402;8.550;2022-08-24T02:36:37;6.76;;;6.76;;
2710;SDS011;20721;47.402;8.550;2022-08-24T02:37:37;6.58;;;6.58;;
2710;SDS011;20721;47.402;8.550;2022-08-24T02:38:37;6.66;;;6.66;;
2710;SDS011;20721;47.402;8.550;2022-08-24T02:40:37;6.74;;;6.74;;
2710;SDS011;20721;47.402;8.550;2022-08-24T02:42:37;6.81;;;6.81;;
2710;SDS011;20721;47.402;8.550;2022-08-24T02:43:37;6.75;;;6.75;;
2710;SDS011;20721;47.402;8.550;2022-08-24T02:44:37;6.97;;;6.97;;
2710;SDS011;20721;47.402;8.550;2022-08-24T02:45:38;7.16;;;7.16;;
2710;SDS011;20721;47.402;8.550;2022-08-24T02:46:38;5.74;;;5.74;;
2710;SDS011;20721;47.402;8.550;2022-08-24T02:47:47;6.12;;;6.12;;
2710;SDS011;20721;47.402;8.550;2022-08-24T02:48:37;6.84;;;6.84;;
2710;SDS011;20721;47.402;8.550;2022-08-24T02:49:37;6.86;;;6.86;;
2710;SDS011;20721;47.402;8.550;2022-08-24T02:50:38;6.47;;;6.47;;
2710;SDS011;20721;47.402;8.550;2022-08-24T02:51:42;6.72;;;6.72;;
2710;SDS011;20721;47.402;8.550;2022-08-24T02:52:37;6.32;;;6.32;;
2710;SDS011;20721;47.402;8.550;2022-08-24T02:53:37;6.70;;;6.70;;
2710;SDS011;20721;47.402;8.550;2022-08-24T02:54:37;6.75;;;6.75;;
2710;SDS011;20721;47.402;8.550;2022-08-24T02:55:37;7.65;;;7.65;;
2710;SDS011;20721;47.402;8.550;2022-08-24T02:57:37;6.60;;;6.60;;
2710;SDS011;20721;47.402;8.550;2022-08-24T02:58:37;7.02;;;7.02;;
2710;SDS011;20721;47.402;8.550;2022-08-24T02:59:37;8.16;;;8.16;;
2710;SDS011;20721;47.402;8.550;2022-08-24T03:00:37;7.11;;;7.11;;
2710;SDS011;20721;47.402;8.550;2022-08-24T03:06:37;7.78;;;7.78;;
2710;SDS011;20721;47.402;8.550;2022-08-24T03:07:37;7.35;;;7.35;;
2710;SDS011;20721;47.402;8.550;2022-08-24T03:08:39;7.49;;;7.49;;
2710;SDS011;20721;47.402;8.550;2022-08-24T03:09:39;7.32;;;7.32;;
2710;SDS011;20721;47.402;8.550;2022-08-24T03:10:37;7.81;;;7.81;;
2710;SDS011;20721;47.402;8.550;2022-08-24T03:11:38;7.57;;;7.57;;
2710;SDS011;20721;47.402;8.550;2022-08-24T03:14:37;8.11;;;8.11;;
2710;SDS011;20721;47.402;8.550;2022-08-24T03:15:37;8.46;;;8.46;;
2710;SDS011;20721;47.402;8.550;2022-08-24T03:17:40;7.87;;;7.87;;
2710;SDS011;20721;47.402;8.550;2022-08-24T03:20:37;7.60;;;7.60;;
2710;SDS011;20721;47.402;8.550;2022-08-24T03:22:37;7.88;;;7.88;;
2710;SDS011;20721;47.402;8.550;2022-08-24T03:23:42;7.48;;;7.48;;
2710;SDS011;20721;47.402;8.550;2022-08-24T03:24:37;7.85;;;7.85;;
2710;SDS011;20721;47.402;8.550;2022-08-24T03:25:37;7.45;;;7.45;;
2710;SDS011;20721;47.402;8.550;2022-08-24T03:27:37;7.66;;;7.66;;
2710;SDS011;20721;47.402;8.550;2022-08-24T03:28:37;7.18;;;7.18;;
2710;SDS011;20721;47.402;8.550;2022-08-24T03:29:37;7.52;;;7.52;;
2710;SDS011;20721;47.402;8.550;2022-08-24T03:30:38;8.51;;;8.51;;
2710;SDS011;20721;47.402;8.550;2022-08-24T03:31:37;7.76;;;7.76;;
2710;SDS011;20721;47.402;8.550;2022-08-24T03:32:37;7.26;;;7.26;;
2710;SDS011;20721;47.402;8.550;2022-08-24T03:34:37;7.77;;;7.77;;
2710;SDS011;20721;47.402;8.550;2022-08-24T03:35:37;8.19;;;8.19;;
2710;SDS011;20721;47.402;8.550;2022-08-24T03:36:37;7.57;;;7.57;;
2710;SDS011;20721;47.402;8.550;2022-08-24T03:37:37;7.73;;;7.73;;
2710;SDS011;20721;47.402;8.550;2022-08-24T03:38:37;7.59;;;7.59;;
2710;SDS011;20721;47.402;8.550;2022-08-24T03:39:37;8.09;;;8.09;;
2710;SDS011;20721;47.402;8.550;2022-08-24T03:40:37;7.36;;;7.36;;
2710;SDS011;20721;47.402;8.550;2022-08-24T03:42:37;7.30;;;7.30;;
2710;SDS011;20721;47.402;8.550;2022-08-24T03:43:48;7.13;;;7.13;;
2710;SDS011;20721;47.402;8.550;2022-08-24T03:46:38;7.83;;;7.83;;
2710;SDS011;20721;47.402;8.550;2022-08-24T03:47:37;6.85;;;6.85;;
2710;SDS011;20721;47.402;8.550;2022-08-24T03:48:38;7.14;;;7.14;;
2710;SDS011;20721;47.402;8.550;2022-08-24T03:49:37;7.78;;;7.78;;
2710;SDS011;20721;47.402;8.550;2022-08-24T03:50:37;7.14;;;7.14;;
2710;SDS011;20721;47.402;8.550;2022-08-24T03:51:37;7.85;;;7.85;;
2710;SDS011;20721;47.402;8.550;2022-08-24T03:54:37;8.41;;;8.41;;
2710;SDS011;20721;47.402;8.550;2022-08-24T03:56:37;7.44;;;7.44;;
2710;SDS011;20721;47.402;8.550;2022-08-24T04:01:37;7.37;;;7.37;;
2710;SDS011;20721;47.402;8.550;2022-08-24T04:02:42;8.00;;;8.00;;
2710;SDS011;20721;47.402;8.550;2022-08-24T04:05:38;7.83;;;7.83;;
2710;SDS011;20721;47.402;8.550;2022-08-24T04:06:37;8.29;;;8.29;;
2710;SDS011;20721;47.402;8.550;2022-08-24T04:07:37;7.14;;;7.14;;
2710;SDS011;20721;47.402;8.550;2022-08-24T04:08:37;7.35;;;7.35;;
2710;SDS011;20721;47.402;8.550;2022-08-24T04:09:39;8.05;;;8.05;;
2710;SDS011;20721;47.402;8.550;2022-08-24T04:10:42;7.75;;;7.75;;
2710;SDS011;20721;47.402;8.550;2022-08-24T04:11:38;8.51;;;8.51;;
2710;SDS011;20721;47.402;8.550;2022-08-24T04:12:37;8.03;;;8.03;;
2710;SDS011;20721;47.402;8.550;2022-08-24T04:13:40;7.57;;;7.57;;
2710;SDS011;20721;47.402;8.550;2022-08-24T04:14:38;7.25;;;7.25;;
2710;SDS011;20721;47.402;8.550;2022-08-24T04:15:38;7.08;;;7.08;;
2710;SDS011;20721;47.402;8.550;2022-08-24T04:16:38;7.14;;;7.14;;
2710;SDS011;20721;47.402;8.550;2022-08-24T04:17:37;7.09;;;7.09;;
2710;SDS011;20721;47.402;8.550;2022-08-24T04:18:39;7.71;;;7.71;;
2710;SDS011;20721;47.402;8.550;2022-08-24T04:19:37;8.72;;;8.72;;
2710;SDS011;20721;47.402;8.550;2022-08-24T04:21:38;7.82;;;7.82;;
2710;SDS011;20721;47.402;8.550;2022-08-24T04:23:47;7.79;;;7.79;;
2710;SDS011;20721;47.402;8.550;2022-08-24T04:25:38;8.07;;;8.07;;
2710;SDS011;20721;47.402;8.550;2022-08-24T04:26:48;7.31;;;7.31;;
2710;SDS011;20721;47.402;8.550;2022-08-24T04:27:38;7.36;;;7.36;;
2710;SDS011;20721;47.402;8.550;2022-08-24T04:29:37;7.17;;;7.17;;
2710;SDS011;20721;47.402;8.550;2022-08-24T04:30:39;7.05;;;7.05;;
2710;SDS011;20721;47.402;8.550;2022-08-24T04:31:40;7.78;;;7.78;;
2710;SDS011;20721;47.402;8.550;2022-08-24T04:32:37;7.53;;;7.53;;
2710;SDS011;20721;47.402;8.550;2022-08-24T04:33:37;7.18;;;7.18;;
2710;SDS011;20721;47.402;8.550;2022-08-24T04:34:37;7.90;;;7.90;;
2710;SDS011;20721;47.402;8.550;2022-08-24T04:35:38;7.70;;;7.70;;
2710;SDS011;20721;47.402;8.550;2022-08-24T04:36:39;8.00;;;8.00;;
2710;SDS011;20721;47.402;8.550;2022-08-24T04:39:37;7.59;;;7.59;;
2710;SDS011;20721;47.402;8.550;2022-08-24T04:40:37;8.41;;;8.41;;
2710;SDS011;20721;47.402;8.550;2022-08-24T04:41:42;8.16;;;8.16;;
2710;SDS011;20721;47.402;8.550;2022-08-24T04:42:37;7.27;;;7.27;;
2710;SDS011;20721;47.402;8.550;2022-08-24T04:43:37;7.85;;;7.85;;
2710;SDS011;20721;47.402;8.550;2022-08-24T04:44:38;8.10;;;8.10;;
2710;SDS011;20721;47.402;8.550;2022-08-24T04:45:38;8.70;;;8.70;;
2710;SDS011;20721;47.402;8.550;2022-08-24T04:46:37;8.00;;;8.00;;
2710;SDS011;20721;47.402;8.550;2022-08-24T04:50:38;8.27;;;8.27;;
2710;SDS011;20721;47.402;8.550;2022-08-24T04:51:40;8.34;;;8.34;;
2710;SDS011;20721;47.402;8.550;2022-08-24T04:52:37;8.26;;;8.26;;
2710;SDS011;20721;47.402;8.550;2022-08-24T04:53:37;7.84;;;7.84;;
2710;SDS011;20721;47.402;8.550;2022-08-24T04:54:37;8.86;;;8.86;;
2710;SDS011;20721;47.402;8.550;2022-08-24T04:55:42;8.46;;;8.46;;
2710;SDS011;20721;47.402;8.550;2022-08-24T04:56:37;8.56;;;8.56;;
2710;SDS011;20721;47.402;8.550;2022-08-24T04:57:37;8.30;;;8.30;;
2710;SDS011;20721;47.402;8.550;2022-08-24T04:58:38;8.01;;;8.01;;
2710;SDS011;20721;47.402;8.550;2022-08-24T04:59:37;8.20;;;8.20;;
2710;SDS011;20721;47.402;8.550;2022-08-24T05:00:37;8.07;;;8.07;;
2710;SDS011;20721;47.402;8.550;2022-08-24T05:01:39;8.04;;;8.04;;
2710;SDS011;20721;47.402;8.550;2022-08-24T05:02:37;9.04;;;9.04;;
2710;SDS011;20721;47.402;8.550;2022-08-24T05:04:37;8.58;;;8.58;;
2710;SDS011;20721;47.402;8.550;2022-08-24T05:05:39;8.28;;;8.28;;
2710;SDS011;20721;47.402;8.550;2022-08-24T05:09:37;7.67;;;7.67;;
2710;SDS011;20721;47.402;8.550;2022-08-24T05:12:37;8.76;;;8.76;;
2710;SDS011;20721;47.402;8.550;2022-08-24T05:13:37;8.12;;;8.12;;
2710;SDS011;20721;47.402;8.550;2022-08-24T05:14:39;8.03;;;8.03;;
2710;SDS011;20721;47.402;8.550;2022-08-24T05:15:41;7.56;;;7.56;;
2710;SDS011;20721;47.402;8.550;2022-08-24T05:16:37;8.73;;;8.73;;
2710;SDS011;20721;47.402;8.550;2022-08-24T05:17:37;7.34;;;7.34;;
2710;SDS011;20721;47.402;8.550;2022-08-24T05:18:39;8.57;;;8.57;;
2710;SDS011;20721;47.402;8.550;2022-08-24T05:20:39;7.97;;;7.97;;
2710;SDS011;20721;47.402;8.550;2022-08-24T05:23:39;8.03;;;8.03;;
2710;SDS011;20721;47.402;8.550;2022-08-24T05:25:38;7.47;;;7.47;;
2710;SDS011;20721;47.402;8.550;2022-08-24T05:27:37;8.27;;;8.27;;
2710;SDS011;20721;47.402;8.550;2022-08-24T05:28:38;8.70;;;8.70;;
2710;SDS011;20721;47.402;8.550;2022-08-24T05:29:37;8.08;;;8.08;;
2710;SDS011;20721;47.402;8.550;2022-08-24T05:30:37;7.71;;;7.71;;
2710;SDS011;20721;47.402;8.550;2022-08-24T05:31:42;8.40;;;8.40;;
2710;SDS011;20721;47.402;8.550;2022-08-24T05:32:37;7.94;;;7.94;;
2710;SDS011;20721;47.402;8.550;2022-08-24T05:33:37;8.04;;;8.04;;
2710;SDS011;20721;47.402;8.550;2022-08-24T05:34:37;8.00;;;8.00;;
2710;SDS011;20721;47.402;8.550;2022-08-24T05:35:38;7.88;;;7.88;;
2710;SDS011;20721;47.402;8.550;2022-08-24T05:36:39;8.32;;;8.32;;
2710;SDS011;20721;47.402;8.550;2022-08-24T05:37:37;7.43;;;7.43;;
2710;SDS011;20721;47.402;8.550;2022-08-24T05:38:37;7.80;;;7.80;;
2710;SDS011;20721;47.402;8.550;2022-08-24T05:39:40;7.98;;;7.98;;
2710;SDS011;20721;47.402;8.550;2022-08-24T05:40:45;7.83;;;7.83;;
2710;SDS011;20721;47.402;8.550;2022-08-24T05:41:38;8.17;;;8.17;;
2710;SDS011;20721;47.402;8.550;2022-08-24T05:42:37;8.21;;;8.21;;
2710;SDS011;20721;47.402;8.550;2022-08-24T05:43:38;7.66;;;7.66;;
2710;SDS011;20721;47.402;8.550;2022-08-24T05:44:41;7.88;;;7.88;;
2710;SDS011;20721;47.402;8.550;2022-08-24T05:45:39;8.43;;;8.43;;
2710;SDS011;20721;47.402;8.550;2022-08-24T05:46:37;8.54;;;8.54;;
2710;SDS011;20721;47.402;8.550;2022-08-24T05:47:37;8.31;;;8.31;;
2710;SDS011;20721;47.402;8.550;2022-08-24T05:48:37;7.86;;;7.86;;
2710;SDS011;20721;47.402;8.550;2022-08-24T05:49:37;8.95;;;8.95;;
2710;SDS011;20721;47.402;8.550;2022-08-24T05:50:37;8.24;;;8.24;;
2710;SDS011;20721;47.402;8.550;2022-08-24T05:51:38;7.79;;;7.79;;
2710;SDS011;20721;47.402;8.550;2022-08-24T05:52:38;8.53;;;8.53;;
2710;SDS011;20721;47.402;8.550;2022-08-24T05:53:38;7.91;;;7.91;;
2710;SDS011;20721;47.402;8.550;2022-08-24T05:54:37;7.80;;;7.80;;
2710;SDS011;20721;47.402;8.550;2022-08-24T05:55:39;7.39;;;7.39;;
2710;SDS011;20721;47.402;8.550;2022-08-24T05:56:42;8.12;;;8.12;;
2710;SDS011;20721;47.402;8.550;2022-08-24T05:57:41;8.50;;;8.50;;
2710;SDS011;20721;47.402;8.550;2022-08-24T05:58:41;8.44;;;8.44;;
2710;SDS011;20721;47.402;8.550;2022-08-24T05:59:37;8.98;;;8.98;;
2710;SDS011;20721;47.402;8.550;2022-08-24T06:00:37;7.63;;;7.63;;
2710;SDS011;20721;47.402;8.550;2022-08-24T06:01:37;7.96;;;7.96;;
2710;SDS011;20721;47.402;8.550;2022-08-24T06:02:38;7.75;;;7.75;;
2710;SDS011;20721;47.402;8.550;2022-08-24T06:03:37;8.14;;;8.14;;
2710;SDS011;20721;47.402;8.550;2022-08-24T06:04:38;8.41;;;8.41;;
2710;SDS011;20721;47.402;8.550;2022-08-24T06:05:38;8.45;;;8.45;;
2710;SDS011;20721;47.402;8.550;2022-08-24T06:06:37;8.02;;;8.02;;
2710;SDS011;20721;47.402;8.550;2022-08-24T06:07:37;8.35;;;8.35;;
2710;SDS011;20721;47.402;8.550;2022-08-24T06:08:38;7.53;;;7.53;;
2710;SDS011;20721;47.402;8.550;2022-08-24T06:09:39;7.51;;;7.51;;
2710;SDS011;20721;47.402;8.550;2022-08-24T06:10:48;8.06;;;8.06;;
2710;SDS011;20721;47.402;8.550;2022-08-24T06:11:43;8.33;;;8.33;;
2710;SDS011;20721;47.402;8.550;2022-08-24T06:12:37;7.95;;;7.95;;
2710;SDS011;20721;47.402;8.550;2022-08-24T06:13:38;8.61;;;8.61;;
2710;SDS011;20721;47.402;8.550;2022-08-24T06:14:37;8.65;;;8.65;;
2710;SDS011;20721;47.402;8.550;2022-08-24T06:15:37;7.78;;;7.78;;
2710;SDS011;20721;47.402;8.550;2022-08-24T06:16:39;8.77;;;8.77;;
2710;SDS011;20721;47.402;8.550;2022-08-24T06:17:38;7.66;;;7.66;;
2710;SDS011;20721;47.402;8.550;2022-08-24T06:18:37;8.53;;;8.53;;
2710;SDS011;20721;47.402;8.550;2022-08-24T06:19:37;8.29;;;8.29;;
2710;SDS011;20721;47.402;8.550;2022-08-24T06:20:39;8.42;;;8.42;;
2710;SDS011;20721;47.402;8.550;2022-08-24T06:21:39;8.17;;;8.17;;
2710;SDS011;20721;47.402;8.550;2022-08-24T06:22:37;8.80;;;8.80;;
2710;SDS011;20721;47.402;8.550;2022-08-24T06:23:37;7.88;;;7.88;;
2710;SDS011;20721;47.402;8.550;2022-08-24T06:24:48;8.14;;;8.14;;
2710;SDS011;20721;47.402;8.550;2022-08-24T06:25:48;8.41;;;8.41;;
2710;SDS011;20721;47.402;8.550;2022-08-24T06:26:47;8.25;;;8.25;;
2710;SDS011;20721;47.402;8.550;2022-08-24T06:27:37;8.47;;;8.47;;
2710;SDS011;20721;47.402;8.550;2022-08-24T06:28:38;8.17;;;8.17;;
2710;SDS011;20721;47.402;8.550;2022-08-24T06:29:37;8.31;;;8.31;;
2710;SDS011;20721;47.402;8.550;2022-08-24T06:30:41;8.52;;;8.52;;
2710;SDS011;20721;47.402;8.550;2022-08-24T06:31:39;8.21;;;8.21;;
2710;SDS011;20721;47.402;8.550;2022-08-24T06:32:38;7.73;;;7.73;;
2710;SDS011;20721;47.402;8.550;2022-08-24T06:33:37;8.85;;;8.85;;
2710;SDS011;20721;47.402;8.550;2022-08-24T06:34:37;8.66;;;8.66;;
2710;SDS011;20721;47.402;8.550;2022-08-24T06:35:39;7.91;;;7.91;;
2710;SDS011;20721;47.402;8.550;2022-08-24T06:36:37;7.73;;;7.73;;
2710;SDS011;20721;47.402;8.550;2022-08-24T06:37:39;7.68;;;7.68;;
2710;SDS011;20721;47.402;8.550;2022-08-24T06:38:37;8.19;;;8.19;;
2710;SDS011;20721;47.402;8.550;2022-08-24T06:39:38;8.90;;;8.90;;
2710;SDS011;20721;47.402;8.550;2022-08-24T06:40:37;7.52;;;7.52;;
2710;SDS011;20721;47.402;8.550;2022-08-24T06:41:37;8.62;;;8.62;;
2710;SDS011;20721;47.402;8.550;2022-08-24T06:42:38;8.37;;;8.37;;
2710;SDS011;20721;47.402;8.550;2022-08-24T06:43:37;9.03;;;9.03;;
2710;SDS011;20721;47.402;8.550;2022-08-24T06:44:37;7.78;;;7.78;;
2710;SDS011;20721;47.402;8.550;2022-08-24T06:45:40;8.54;;;8.54;;
2710;SDS011;20721;47.402;8.550;2022-08-24T06:46:45;8.48;;;8.48;;
2710;SDS011;20721;47.402;8.550;2022-08-24T06:47:37;8.25;;;8.25;;
2710;SDS011;20721;47.402;8.550;2022-08-24T06:48:39;8.35;;;8.35;;
2710;SDS011;20721;47.402;8.550;2022-08-24T06:49:37;8.27;;;8.27;;
2710;SDS011;20721;47.402;8.550;2022-08-24T06:50:38;8.59;;;8.59;;
2710;SDS011;20721;47.402;8.550;2022-08-24T06:51:38;8.50;;;8.50;;
2710;SDS011;20721;47.402;8.550;2022-08-24T06:52:37;7.72;;;7.72;;
2710;SDS011;20721;47.402;8.550;2022-08-24T06:53:38;7.43;;;7.43;;
2710;SDS011;20721;47.402;8.550;2022-08-24T06:54:37;9.28;;;9.28;;
2710;SDS011;20721;47.402;8.550;2022-08-24T06:55:37;8.70;;;8.70;;
2710;SDS011;20721;47.402;8.550;2022-08-24T06:56:37;7.90;;;7.90;;
2710;SDS011;20721;47.402;8.550;2022-08-24T06:57:37;7.75;;;7.75;;
2710;SDS011;20721;47.402;8.550;2022-08-24T06:58:37;7.98;;;7.98;;
2710;SDS011;20721;47.402;8.550;2022-08-24T06:59:38;7.94;;;7.94;;
2710;SDS011;20721;47.402;8.550;2022-08-24T07:00:37;8.38;;;8.38;;
2710;SDS011;20721;47.402;8.550;2022-08-24T07:01:37;8.75;;;8.75;;
2710;SDS011;20721;47.402;8.550;2022-08-24T07:02:37;8.52;;;8.52;;
2710;SDS011;20721;47.402;8.550;2022-08-24T07:03:37;8.81;;;8.81;;
2710;SDS011;20721;47.402;8.550;2022-08-24T07:04:38;8.26;;;8.26;;
2710;SDS011;20721;47.402;8.550;2022-08-24T07:05:37;8.08;;;8.08;;
2710;SDS011;20721;47.402;8.550;2022-08-24T07:06:37;8.42;;;8.42;;
2710;SDS011;20721;47.402;8.550;2022-08-24T07:07:38;8.87;;;8.87;;
2710;SDS011;20721;47.402;8.550;2022-08-24T07:08:37;8.68;;;8.68;;
2710;SDS011;20721;47.402;8.550;2022-08-24T07:09:40;7.45;;;7.45;;
2710;SDS011;20721;47.402;8.550;2022-08-24T07:10:39;8.19;;;8.19;;
2710;SDS011;20721;47.402;8.550;2022-08-24T07:11:37;8.17;;;8.17;;
2710;SDS011;20721;47.402;8.550;2022-08-24T07:12:37;8.39;;;8.39;;
2710;SDS011;20721;47.402;8.550;2022-08-24T07:13:40;8.34;;;8.34;;
2710;SDS011;20721;47.402;8.550;2022-08-24T07:14:37;8.37;;;8.37;;
2710;SDS011;20721;47.402;8.550;2022-08-24T07:15:38;8.57;;;8.57;;
2710;SDS011;20721;47.402;8.550;2022-08-24T07:16:38;8.40;;;8.40;;
2710;SDS011;20721;47.402;8.550;2022-08-24T07:17:37;7.88;;;7.88;;
2710;SDS011;20721;47.402;8.550;2022-08-24T07:18:37;7.82;;;7.82;;
2710;SDS011;20721;47.402;8.550;2022-08-24T07:19:37;8.03;;;8.03;;
2710;SDS011;20721;47.402;8.550;2022-08-24T07:20:39;7.52;;;7.52;;
2710;SDS011;20721;47.402;8.550;2022-08-24T07:21:37;7.92;;;7.92;;
2710;SDS011;20721;47.402;8.550;2022-08-24T07:22:37;7.83;;;7.83;;
2710;SDS011;20721;47.402;8.550;2022-08-24T07:23:48;7.96;;;7.96;;
2710;SDS011;20721;47.402;8.550;2022-08-24T07:24:37;6.85;;;6.85;;
2710;SDS011;20721;47.402;8.550;2022-08-24T07:25:40;8.00;;;8.00;;
2710;SDS011;20721;47.402;8.550;2022-08-24T07:26:39;6.76;;;6.76;;
2710;SDS011;20721;47.402;8.550;2022-08-24T07:27:38;7.41;;;7.41;;
2710;SDS011;20721;47.402;8.550;2022-08-24T07:28:46;7.82;;;7.82;;
2710;SDS011;20721;47.402;8.550;2022-08-24T07:29:52;7.98;;;7.98;;
2710;SDS011;20721;47.402;8.550;2022-08-24T07:30:39;7.92;;;7.92;;
2710;SDS011;20721;47.402;8.550;2022-08-24T07:31:42;7.77;;;7.77;;
2710;SDS011;20721;47.402;8.550;2022-08-24T07:32:37;7.53;;;7.53;;
2710;SDS011;20721;47.402;8.550;2022-08-24T07:33:37;6.85;;;6.85;;
2710;SDS011;20721;47.402;8.550;2022-08-24T07:34:38;7.12;;;7.12;;
2710;SDS011;20721;47.402;8.550;2022-08-24T07:35:39;6.60;;;6.60;;
2710;SDS011;20721;47.402;8.550;2022-08-24T07:36:39;6.95;;;6.95;;